sensor_id;sensor_type;location;lat;lon;timestamp;P1;durP1;ratioP1;P2;durP2;ratioP2
5539;SDS011;2792;52.452;9.752;2023-02-15T00:01:38;31.63;;;16.70;;
5539;SDS011;2792;52.452;9.752;2023-02-15T00:04:04;24.67;;;14.70;;
5539;SDS011;2792;52.452;9.752;2023-02-15T00:06:33;29.23;;;16.20;;
5539;SDS011;2792;52.452;9.752;2023-02-15T00:08:59;29.60;;;16.57;;
5539;SDS011;2792;52.452;9.752;2023-02-15T00:11:26;29.70;;;15.83;;
5539;SDS011;2792;52.452;9.752;2023-02-15T00:14:15;29.47;;;17.57;;
5539;SDS011;2792;52.452;9.752;2023-02-15T00:16:43;26.83;;;15.47;;
5539;SDS011;2792;52.452;9.752;2023-02-15T00:19:11;31.03;;;16.10;;
5539;SDS011;2792;52.452;9.752;2023-02-15T00:21:40;29.07;;;15.83;;
5539;SDS011;2792;52.452;9.752;2023-02-15T00:24:07;29.63;;;15.13;;
5539;SDS011;2792;52.452;9.752;2023-02-15T00:26:35;31.50;;;17.23;;
5539;SDS011;2792;52.452;9.752;2023-02-15T00:29:03;25.77;;;15.33;;
5539;SDS011;2792;52.452;9.752;2023-02-15T00:31:30;28.57;;;16.07;;
5539;SDS011;2792;52.452;9.752;2023-02-15T00:34:00;29.97;;;16.43;;
5539;SDS011;2792;52.452;9.752;2023-02-15T00:36:27;28.70;;;15.53;;
5539;SDS011;2792;52.452;9.752;2023-02-15T00:38:55;27.60;;;15.40;;
5539;SDS011;2792;52.452;9.752;2023-02-15T00:41:22;25.63;;;15.40;;
5539;SDS011;2792;52.452;9.752;2023-02-15T00:43:48;28.53;;;16.83;;
5539;SDS011;2792;52.452;9.752;2023-02-15T00:46:15;29.70;;;15.80;;
5539;SDS011;2792;52.452;9.752;2023-02-15T00:48:41;25.70;;;14.97;;
5539;SDS011;2792;52.452;9.752;2023-02-15T00:51:08;28.30;;;15.47;;
5539;SDS011;2792;52.452;9.752;2023-02-15T00:53:35;32.07;;;16.20;;
5539;SDS011;2792;52.452;9.752;2023-02-15T00:56:03;28.47;;;14.97;;
5539;SDS011;2792;52.452;9.752;2023-02-15T00:58:29;27.73;;;14.70;;
5539;SDS011;2792;52.452;9.752;2023-02-15T01:01:01;30.83;;;15.63;;
5539;SDS011;2792;52.452;9.752;2023-02-15T01:03:28;29.90;;;14.97;;
5539;SDS011;2792;52.452;9.752;2023-02-15T01:05:55;23.90;;;14.47;;
5539;SDS011;2792;52.452;9.752;2023-02-15T01:08:21;27.90;;;15.40;;
5539;SDS011;2792;52.452;9.752;2023-02-15T01:10:48;29.60;;;15.73;;
5539;SDS011;2792;52.452;9.752;2023-02-15T01:13:16;25.83;;;14.47;;
5539;SDS011;2792;52.452;9.752;2023-02-15T01:15:43;26.83;;;14.30;;
5539;SDS011;2792;52.452;9.752;2023-02-15T01:18:09;25.67;;;15.80;;
5539;SDS011;2792;52.452;9.752;2023-02-15T01:20:37;27.13;;;15.17;;
5539;SDS011;2792;52.452;9.752;2023-02-15T01:23:06;26.07;;;13.83;;
5539;SDS011;2792;52.452;9.752;2023-02-15T01:25:34;20.57;;;12.33;;
5539;SDS011;2792;52.452;9.752;2023-02-15T01:28:01;27.30;;;15.77;;
5539;SDS011;2792;52.452;9.752;2023-02-15T01:30:29;23.73;;;13.53;;
5539;SDS011;2792;52.452;9.752;2023-02-15T01:32:56;26.80;;;14.37;;
5539;SDS011;2792;52.452;9.752;2023-02-15T01:35:22;21.57;;;12.70;;
5539;SDS011;2792;52.452;9.752;2023-02-15T01:37:49;24.60;;;14.53;;
5539;SDS011;2792;52.452;9.752;2023-02-15T01:40:16;27.10;;;14.63;;
5539;SDS011;2792;52.452;9.752;2023-02-15T01:42:44;27.00;;;13.77;;
5539;SDS011;2792;52.452;9.752;2023-02-15T01:45:14;26.07;;;13.43;;
5539;SDS011;2792;52.452;9.752;2023-02-15T01:47:47;25.07;;;14.33;;
5539;SDS011;2792;52.452;9.752;2023-02-15T01:50:17;23.70;;;13.40;;
5539;SDS011;2792;52.452;9.752;2023-02-15T01:52:46;21.93;;;12.70;;
5539;SDS011;2792;52.452;9.752;2023-02-15T01:55:15;22.50;;;13.00;;
5539;SDS011;2792;52.452;9.752;2023-02-15T01:57:42;26.73;;;12.40;;
5539;SDS011;2792;52.452;9.752;2023-02-15T02:00:10;26.10;;;13.10;;
5539;SDS011;2792;52.452;9.752;2023-02-15T02:02:37;24.13;;;13.80;;
5539;SDS011;2792;52.452;9.752;2023-02-15T02:05:05;21.07;;;12.57;;
5539;SDS011;2792;52.452;9.752;2023-02-15T02:07:33;22.30;;;13.40;;
5539;SDS011;2792;52.452;9.752;2023-02-15T02:10:03;20.47;;;12.37;;
5539;SDS011;2792;52.452;9.752;2023-02-15T02:12:30;24.17;;;13.20;;
5539;SDS011;2792;52.452;9.752;2023-02-15T02:14:57;22.03;;;12.93;;
5539;SDS011;2792;52.452;9.752;2023-02-15T02:17:26;21.83;;;12.03;;
5539;SDS011;2792;52.452;9.752;2023-02-15T02:20:17;22.00;;;13.07;;
5539;SDS011;2792;52.452;9.752;2023-02-15T02:25:52;21.83;;;13.30;;
5539;SDS011;2792;52.452;9.752;2023-02-15T02:28:48;24.60;;;12.60;;
5539;SDS011;2792;52.452;9.752;2023-02-15T02:31:40;22.57;;;13.13;;
5539;SDS011;2792;52.452;9.752;2023-02-15T02:34:12;23.47;;;12.07;;
5539;SDS011;2792;52.452;9.752;2023-02-15T02:36:44;20.60;;;12.47;;
5539;SDS011;2792;52.452;9.752;2023-02-15T02:39:19;23.67;;;11.90;;
5539;SDS011;2792;52.452;9.752;2023-02-15T02:41:50;22.03;;;12.50;;
5539;SDS011;2792;52.452;9.752;2023-02-15T02:44:24;23.90;;;12.30;;
5539;SDS011;2792;52.452;9.752;2023-02-15T02:46:53;21.83;;;12.20;;
5539;SDS011;2792;52.452;9.752;2023-02-15T02:49:30;20.77;;;12.20;;
5539;SDS011;2792;52.452;9.752;2023-02-15T02:51:58;22.90;;;11.77;;
5539;SDS011;2792;52.452;9.752;2023-02-15T02:54:26;20.77;;;12.10;;
5539;SDS011;2792;52.452;9.752;2023-02-15T02:56:53;23.50;;;11.70;;
5539;SDS011;2792;52.452;9.752;2023-02-15T02:59:23;23.20;;;12.27;;
5539;SDS011;2792;52.452;9.752;2023-02-15T03:01:52;23.70;;;12.87;;
5539;SDS011;2792;52.452;9.752;2023-02-15T03:04:22;20.37;;;12.70;;
5539;SDS011;2792;52.452;9.752;2023-02-15T03:06:53;26.33;;;13.50;;
5539;SDS011;2792;52.452;9.752;2023-02-15T03:09:23;23.00;;;12.23;;
5539;SDS011;2792;52.452;9.752;2023-02-15T03:11:59;29.40;;;13.40;;
5539;SDS011;2792;52.452;9.752;2023-02-15T03:14:26;22.30;;;12.70;;
5539;SDS011;2792;52.452;9.752;2023-02-15T03:16:53;23.37;;;12.00;;
5539;SDS011;2792;52.452;9.752;2023-02-15T03:19:22;23.77;;;13.10;;
5539;SDS011;2792;52.452;9.752;2023-02-15T03:21:50;26.37;;;13.37;;
5539;SDS011;2792;52.452;9.752;2023-02-15T03:24:29;21.07;;;12.43;;
5539;SDS011;2792;52.452;9.752;2023-02-15T03:26:58;22.33;;;12.80;;
5539;SDS011;2792;52.452;9.752;2023-02-15T03:29:26;18.50;;;12.17;;
5539;SDS011;2792;52.452;9.752;2023-02-15T03:31:54;22.87;;;12.37;;
5539;SDS011;2792;52.452;9.752;2023-02-15T03:34:22;23.00;;;13.20;;
5539;SDS011;2792;52.452;9.752;2023-02-15T03:36:50;25.17;;;12.53;;
5539;SDS011;2792;52.452;9.752;2023-02-15T03:39:22;26.90;;;12.67;;
5539;SDS011;2792;52.452;9.752;2023-02-15T03:41:55;20.80;;;12.53;;
5539;SDS011;2792;52.452;9.752;2023-02-15T03:44:24;21.13;;;12.60;;
5539;SDS011;2792;52.452;9.752;2023-02-15T03:46:55;22.07;;;12.60;;
5539;SDS011;2792;52.452;9.752;2023-02-15T03:49:27;24.77;;;12.20;;
5539;SDS011;2792;52.452;9.752;2023-02-15T03:51:57;23.70;;;11.73;;
5539;SDS011;2792;52.452;9.752;2023-02-15T03:54:25;22.20;;;13.47;;
5539;SDS011;2792;52.452;9.752;2023-02-15T03:57:12;19.37;;;11.30;;
5539;SDS011;2792;52.452;9.752;2023-02-15T03:59:58;21.20;;;13.17;;
5539;SDS011;2792;52.452;9.752;2023-02-15T04:02:45;27.47;;;14.43;;
5539;SDS011;2792;52.452;9.752;2023-02-15T04:05:18;27.97;;;14.07;;
5539;SDS011;2792;52.452;9.752;2023-02-15T04:07:46;21.80;;;12.80;;
5539;SDS011;2792;52.452;9.752;2023-02-15T04:10:13;20.07;;;12.40;;
5539;SDS011;2792;52.452;9.752;2023-02-15T04:12:57;21.60;;;11.52;;
5539;SDS011;2792;52.452;9.752;2023-02-15T04:15:23;21.67;;;11.57;;
5539;SDS011;2792;52.452;9.752;2023-02-15T04:18:07;16.63;;;11.37;;
5539;SDS011;2792;52.452;9.752;2023-02-15T04:20:34;18.50;;;11.40;;
5539;SDS011;2792;52.452;9.752;2023-02-15T04:23:19;22.23;;;13.07;;
5539;SDS011;2792;52.452;9.752;2023-02-15T04:26:03;20.87;;;12.00;;
5539;SDS011;2792;52.452;9.752;2023-02-15T04:28:30;22.50;;;13.00;;
5539;SDS011;2792;52.452;9.752;2023-02-15T04:30:57;18.37;;;10.70;;
5539;SDS011;2792;52.452;9.752;2023-02-15T04:33:23;17.27;;;10.60;;
5539;SDS011;2792;52.452;9.752;2023-02-15T04:35:50;20.30;;;11.77;;
5539;SDS011;2792;52.452;9.752;2023-02-15T04:38:16;17.57;;;11.30;;
5539;SDS011;2792;52.452;9.752;2023-02-15T04:40:44;18.80;;;11.00;;
5539;SDS011;2792;52.452;9.752;2023-02-15T04:43:15;21.23;;;12.47;;
5539;SDS011;2792;52.452;9.752;2023-02-15T04:45:46;20.83;;;11.67;;
5539;SDS011;2792;52.452;9.752;2023-02-15T04:48:14;18.90;;;10.87;;
5539;SDS011;2792;52.452;9.752;2023-02-15T04:50:40;19.75;;;10.85;;
5539;SDS011;2792;52.452;9.752;2023-02-15T04:53:06;17.35;;;11.00;;
5539;SDS011;2792;52.452;9.752;2023-02-15T04:55:33;20.85;;;10.77;;
5539;SDS011;2792;52.452;9.752;2023-02-15T04:58:01;24.80;;;11.80;;
5539;SDS011;2792;52.452;9.752;2023-02-15T05:00:28;20.30;;;11.77;;
5539;SDS011;2792;52.452;9.752;2023-02-15T05:02:54;18.38;;;11.23;;
5539;SDS011;2792;52.452;9.752;2023-02-15T05:05:20;18.25;;;11.18;;
5539;SDS011;2792;52.452;9.752;2023-02-15T05:07:47;20.17;;;12.37;;
5539;SDS011;2792;52.452;9.752;2023-02-15T05:10:14;17.63;;;11.15;;
5539;SDS011;2792;52.452;9.752;2023-02-15T05:12:40;16.25;;;10.70;;
5539;SDS011;2792;52.452;9.752;2023-02-15T05:15:08;21.20;;;11.90;;
5539;SDS011;2792;52.452;9.752;2023-02-15T05:17:35;19.63;;;11.00;;
5539;SDS011;2792;52.452;9.752;2023-02-15T05:20:02;21.57;;;12.47;;
5539;SDS011;2792;52.452;9.752;2023-02-15T05:22:29;20.15;;;12.13;;
5539;SDS011;2792;52.452;9.752;2023-02-15T05:24:55;16.07;;;10.43;;
5539;SDS011;2792;52.452;9.752;2023-02-15T05:27:39;19.20;;;12.15;;
5539;SDS011;2792;52.452;9.752;2023-02-15T05:30:25;18.35;;;10.50;;
5539;SDS011;2792;52.452;9.752;2023-02-15T05:32:51;15.15;;;10.02;;
5539;SDS011;2792;52.452;9.752;2023-02-15T05:35:18;15.75;;;10.85;;
5539;SDS011;2792;52.452;9.752;2023-02-15T05:37:45;20.20;;;12.20;;
5539;SDS011;2792;52.452;9.752;2023-02-15T05:40:11;23.23;;;12.18;;
5539;SDS011;2792;52.452;9.752;2023-02-15T05:42:38;19.88;;;11.65;;
5539;SDS011;2792;52.452;9.752;2023-02-15T05:45:05;19.60;;;12.07;;
5539;SDS011;2792;52.452;9.752;2023-02-15T05:47:33;19.80;;;12.40;;
5539;SDS011;2792;52.452;9.752;2023-02-15T05:50:00;19.92;;;11.07;;
5539;SDS011;2792;52.452;9.752;2023-02-15T05:52:26;24.27;;;12.30;;
5539;SDS011;2792;52.452;9.752;2023-02-15T05:54:53;17.85;;;10.82;;
5539;SDS011;2792;52.452;9.752;2023-02-15T05:57:19;20.92;;;12.32;;
5539;SDS011;2792;52.452;9.752;2023-02-15T05:59:46;18.02;;;11.70;;
5539;SDS011;2792;52.452;9.752;2023-02-15T06:02:12;21.55;;;12.30;;
5539;SDS011;2792;52.452;9.752;2023-02-15T06:04:40;19.52;;;10.88;;
5539;SDS011;2792;52.452;9.752;2023-02-15T06:07:06;19.05;;;11.05;;
5539;SDS011;2792;52.452;9.752;2023-02-15T06:09:33;20.88;;;11.50;;
5539;SDS011;2792;52.452;9.752;2023-02-15T06:11:59;19.40;;;11.57;;
5539;SDS011;2792;52.452;9.752;2023-02-15T06:14:26;20.48;;;12.20;;
5539;SDS011;2792;52.452;9.752;2023-02-15T06:16:52;31.45;;;14.27;;
5539;SDS011;2792;52.452;9.752;2023-02-15T06:19:19;22.65;;;13.50;;
5539;SDS011;2792;52.452;9.752;2023-02-15T06:21:47;21.52;;;12.52;;
5539;SDS011;2792;52.452;9.752;2023-02-15T06:24:13;19.88;;;12.50;;
5539;SDS011;2792;52.452;9.752;2023-02-15T06:26:40;23.83;;;13.15;;
5539;SDS011;2792;52.452;9.752;2023-02-15T06:29:07;21.00;;;12.37;;
5539;SDS011;2792;52.452;9.752;2023-02-15T06:31:33;20.98;;;12.55;;
5539;SDS011;2792;52.452;9.752;2023-02-15T06:34:00;24.80;;;13.20;;
5539;SDS011;2792;52.452;9.752;2023-02-15T06:36:26;21.05;;;12.88;;
5539;SDS011;2792;52.452;9.752;2023-02-15T06:38:55;19.23;;;12.30;;
5539;SDS011;2792;52.452;9.752;2023-02-15T06:41:22;23.40;;;11.85;;
5539;SDS011;2792;52.452;9.752;2023-02-15T06:43:48;22.45;;;12.43;;
5539;SDS011;2792;52.452;9.752;2023-02-15T06:46:15;19.02;;;11.73;;
5539;SDS011;2792;52.452;9.752;2023-02-15T06:48:41;22.63;;;13.18;;
5539;SDS011;2792;52.452;9.752;2023-02-15T06:51:08;23.42;;;12.90;;
5539;SDS011;2792;52.452;9.752;2023-02-15T06:53:34;19.85;;;11.93;;
5539;SDS011;2792;52.452;9.752;2023-02-15T06:56:03;22.98;;;12.65;;
5539;SDS011;2792;52.452;9.752;2023-02-15T06:58:31;25.10;;;12.35;;
5539;SDS011;2792;52.452;9.752;2023-02-15T07:00:58;23.10;;;12.85;;
5539;SDS011;2792;52.452;9.752;2023-02-15T07:03:24;21.10;;;13.80;;
5539;SDS011;2792;52.452;9.752;2023-02-15T07:05:53;23.40;;;12.93;;
5539;SDS011;2792;52.452;9.752;2023-02-15T07:08:20;24.25;;;13.50;;
5539;SDS011;2792;52.452;9.752;2023-02-15T07:10:48;21.70;;;12.63;;
5539;SDS011;2792;52.452;9.752;2023-02-15T07:13:15;23.50;;;13.48;;
5539;SDS011;2792;52.452;9.752;2023-02-15T07:15:41;23.73;;;12.90;;
5539;SDS011;2792;52.452;9.752;2023-02-15T07:18:08;23.13;;;12.65;;
5539;SDS011;2792;52.452;9.752;2023-02-15T07:20:36;20.52;;;12.25;;
5539;SDS011;2792;52.452;9.752;2023-02-15T07:23:02;24.30;;;13.48;;
5539;SDS011;2792;52.452;9.752;2023-02-15T07:25:29;21.80;;;12.90;;
5539;SDS011;2792;52.452;9.752;2023-02-15T07:27:56;21.02;;;13.48;;
5539;SDS011;2792;52.452;9.752;2023-02-15T07:30:24;24.93;;;14.00;;
5539;SDS011;2792;52.452;9.752;2023-02-15T07:32:50;25.57;;;14.33;;
5539;SDS011;2792;52.452;9.752;2023-02-15T07:35:38;24.93;;;14.20;;
5539;SDS011;2792;52.452;9.752;2023-02-15T07:38:12;30.27;;;15.60;;
5539;SDS011;2792;52.452;9.752;2023-02-15T07:40:39;22.37;;;14.70;;
5539;SDS011;2792;52.452;9.752;2023-02-15T07:43:05;26.00;;;14.67;;
5539;SDS011;2792;52.452;9.752;2023-02-15T07:45:33;25.80;;;15.13;;
5539;SDS011;2792;52.452;9.752;2023-02-15T07:47:59;25.30;;;13.90;;
5539;SDS011;2792;52.452;9.752;2023-02-15T07:50:27;24.30;;;13.63;;
5539;SDS011;2792;52.452;9.752;2023-02-15T07:52:53;26.17;;;14.17;;
5539;SDS011;2792;52.452;9.752;2023-02-15T07:55:20;26.43;;;14.23;;
5539;SDS011;2792;52.452;9.752;2023-02-15T07:57:47;24.70;;;14.53;;
5539;SDS011;2792;52.452;9.752;2023-02-15T08:00:15;24.43;;;14.23;;
5539;SDS011;2792;52.452;9.752;2023-02-15T08:02:48;28.30;;;14.80;;
5539;SDS011;2792;52.452;9.752;2023-02-15T08:05:35;28.50;;;14.70;;
5539;SDS011;2792;52.452;9.752;2023-02-15T08:08:02;26.80;;;15.30;;
5539;SDS011;2792;52.452;9.752;2023-02-15T08:10:28;24.33;;;14.57;;
5539;SDS011;2792;52.452;9.752;2023-02-15T08:13:09;29.83;;;16.10;;
5539;SDS011;2792;52.452;9.752;2023-02-15T08:15:35;24.93;;;14.80;;
5539;SDS011;2792;52.452;9.752;2023-02-15T08:18:03;22.57;;;14.50;;
5539;SDS011;2792;52.452;9.752;2023-02-15T08:20:30;33.83;;;16.00;;
5539;SDS011;2792;52.452;9.752;2023-02-15T08:22:56;26.93;;;15.93;;
5539;SDS011;2792;52.452;9.752;2023-02-15T08:25:23;25.80;;;15.00;;
5539;SDS011;2792;52.452;9.752;2023-02-15T08:27:49;29.13;;;15.20;;
5539;SDS011;2792;52.452;9.752;2023-02-15T08:30:16;35.80;;;16.70;;
5539;SDS011;2792;52.452;9.752;2023-02-15T08:32:42;31.43;;;16.87;;
5539;SDS011;2792;52.452;9.752;2023-02-15T08:35:10;29.40;;;17.00;;
5539;SDS011;2792;52.452;9.752;2023-02-15T08:37:37;41.70;;;18.00;;
5539;SDS011;2792;52.452;9.752;2023-02-15T08:40:04;33.60;;;16.87;;
5539;SDS011;2792;52.452;9.752;2023-02-15T08:42:32;33.10;;;17.73;;
5539;SDS011;2792;52.452;9.752;2023-02-15T08:44:58;35.83;;;18.80;;
5539;SDS011;2792;52.452;9.752;2023-02-15T08:47:25;37.20;;;18.97;;
5539;SDS011;2792;52.452;9.752;2023-02-15T08:49:51;42.00;;;18.97;;
5539;SDS011;2792;52.452;9.752;2023-02-15T08:52:19;42.07;;;19.33;;
5539;SDS011;2792;52.452;9.752;2023-02-15T08:54:46;40.50;;;19.80;;
5539;SDS011;2792;52.452;9.752;2023-02-15T08:57:12;40.07;;;19.23;;
5539;SDS011;2792;52.452;9.752;2023-02-15T08:59:39;44.10;;;20.00;;
5539;SDS011;2792;52.452;9.752;2023-02-15T09:02:05;36.73;;;17.80;;
5539;SDS011;2792;52.452;9.752;2023-02-15T09:04:32;41.17;;;19.23;;
5539;SDS011;2792;52.452;9.752;2023-02-15T09:06:58;33.80;;;19.27;;
5539;SDS011;2792;52.452;9.752;2023-02-15T09:09:26;42.17;;;20.73;;
5539;SDS011;2792;52.452;9.752;2023-02-15T09:11:53;49.97;;;22.07;;
5539;SDS011;2792;52.452;9.752;2023-02-15T09:14:20;42.73;;;21.37;;
5539;SDS011;2792;52.452;9.752;2023-02-15T09:16:48;47.60;;;20.70;;
5539;SDS011;2792;52.452;9.752;2023-02-15T09:19:16;34.60;;;17.67;;
5539;SDS011;2792;52.452;9.752;2023-02-15T09:21:43;35.93;;;19.20;;
5539;SDS011;2792;52.452;9.752;2023-02-15T09:24:10;43.63;;;20.60;;
5539;SDS011;2792;52.452;9.752;2023-02-15T09:26:40;39.53;;;19.07;;
5539;SDS011;2792;52.452;9.752;2023-02-15T09:29:08;39.93;;;20.27;;
5539;SDS011;2792;52.452;9.752;2023-02-15T09:31:37;40.87;;;20.33;;
5539;SDS011;2792;52.452;9.752;2023-02-15T09:34:06;33.13;;;18.53;;
5539;SDS011;2792;52.452;9.752;2023-02-15T09:36:33;38.73;;;18.77;;
5539;SDS011;2792;52.452;9.752;2023-02-15T09:39:01;46.00;;;21.77;;
5539;SDS011;2792;52.452;9.752;2023-02-15T09:47:33;36.00;;;19.10;;
5539;SDS011;2792;52.452;9.752;2023-02-15T09:50:17;38.17;;;19.00;;
5539;SDS011;2792;52.452;9.752;2023-02-15T09:52:51;38.30;;;18.67;;
5539;SDS011;2792;52.452;9.752;2023-02-15T09:55:24;34.30;;;18.70;;
5539;SDS011;2792;52.452;9.752;2023-02-15T09:58:05;38.53;;;18.93;;
5539;SDS011;2792;52.452;9.752;2023-02-15T10:00:39;32.83;;;17.40;;
5539;SDS011;2792;52.452;9.752;2023-02-15T10:03:18;31.20;;;17.97;;
5539;SDS011;2792;52.452;9.752;2023-02-15T10:05:55;29.50;;;17.77;;
5539;SDS011;2792;52.452;9.752;2023-02-15T10:08:52;29.23;;;17.27;;
5539;SDS011;2792;52.452;9.752;2023-02-15T10:11:28;29.37;;;16.47;;
5539;SDS011;2792;52.452;9.752;2023-02-15T10:14:14;26.37;;;15.67;;
5539;SDS011;2792;52.452;9.752;2023-02-15T10:16:48;26.07;;;15.30;;
5539;SDS011;2792;52.452;9.752;2023-02-15T10:19:20;24.70;;;15.80;;
5539;SDS011;2792;52.452;9.752;2023-02-15T10:21:55;25.37;;;14.93;;
5539;SDS011;2792;52.452;9.752;2023-02-15T10:24:30;26.03;;;15.60;;
5539;SDS011;2792;52.452;9.752;2023-02-15T10:27:07;23.83;;;15.13;;
5539;SDS011;2792;52.452;9.752;2023-02-15T10:29:37;22.47;;;13.40;;
5539;SDS011;2792;52.452;9.752;2023-02-15T10:32:10;23.73;;;14.20;;
5539;SDS011;2792;52.452;9.752;2023-02-15T10:34:43;21.63;;;12.47;;
5539;SDS011;2792;52.452;9.752;2023-02-15T10:37:28;21.37;;;13.00;;
5539;SDS011;2792;52.452;9.752;2023-02-15T10:40:03;21.47;;;13.40;;
5539;SDS011;2792;52.452;9.752;2023-02-15T10:42:36;22.37;;;13.40;;
5539;SDS011;2792;52.452;9.752;2023-02-15T10:45:13;20.80;;;14.17;;
5539;SDS011;2792;52.452;9.752;2023-02-15T10:50:40;23.60;;;13.40;;
5539;SDS011;2792;52.452;9.752;2023-02-15T10:53:18;17.43;;;11.77;;
5539;SDS011;2792;52.452;9.752;2023-02-15T10:55:53;24.00;;;13.40;;
5539;SDS011;2792;52.452;9.752;2023-02-15T10:58:27;20.13;;;12.70;;
5539;SDS011;2792;52.452;9.752;2023-02-15T11:01:00;22.00;;;13.13;;
5539;SDS011;2792;52.452;9.752;2023-02-15T11:03:35;22.37;;;13.20;;
5539;SDS011;2792;52.452;9.752;2023-02-15T11:06:06;19.10;;;12.60;;
5539;SDS011;2792;52.452;9.752;2023-02-15T11:08:35;20.17;;;12.10;;
5539;SDS011;2792;52.452;9.752;2023-02-15T11:11:05;20.67;;;12.10;;
5539;SDS011;2792;52.452;9.752;2023-02-15T11:13:34;17.73;;;11.57;;
5539;SDS011;2792;52.452;9.752;2023-02-15T11:16:03;17.27;;;12.37;;
5539;SDS011;2792;52.452;9.752;2023-02-15T11:18:32;20.43;;;12.77;;
5539;SDS011;2792;52.452;9.752;2023-02-15T11:21:03;15.87;;;11.40;;
5539;SDS011;2792;52.452;9.752;2023-02-15T11:23:32;16.63;;;12.40;;
5539;SDS011;2792;52.452;9.752;2023-02-15T11:26:02;17.63;;;12.00;;
5539;SDS011;2792;52.452;9.752;2023-02-15T11:28:31;19.20;;;12.03;;
5539;SDS011;2792;52.452;9.752;2023-02-15T11:31:00;16.77;;;12.10;;
5539;SDS011;2792;52.452;9.752;2023-02-15T11:33:31;18.33;;;12.13;;
5539;SDS011;2792;52.452;9.752;2023-02-15T11:36:03;17.43;;;11.10;;
5539;SDS011;2792;52.452;9.752;2023-02-15T11:38:33;19.67;;;12.30;;
5539;SDS011;2792;52.452;9.752;2023-02-15T11:41:01;18.20;;;11.87;;
5539;SDS011;2792;52.452;9.752;2023-02-15T11:43:32;22.20;;;13.17;;
5539;SDS011;2792;52.452;9.752;2023-02-15T11:46:01;17.23;;;11.63;;
5539;SDS011;2792;52.452;9.752;2023-02-15T11:48:28;21.63;;;12.67;;
5539;SDS011;2792;52.452;9.752;2023-02-15T11:50:57;18.60;;;12.37;;
5539;SDS011;2792;52.452;9.752;2023-02-15T11:53:24;19.93;;;11.77;;
5539;SDS011;2792;52.452;9.752;2023-02-15T11:55:52;16.80;;;11.90;;
5539;SDS011;2792;52.452;9.752;2023-02-15T11:58:25;17.13;;;11.87;;
5539;SDS011;2792;52.452;9.752;2023-02-15T12:00:55;19.50;;;11.30;;
5539;SDS011;2792;52.452;9.752;2023-02-15T12:03:24;18.83;;;12.60;;
5539;SDS011;2792;52.452;9.752;2023-02-15T12:05:56;18.63;;;12.23;;
5539;SDS011;2792;52.452;9.752;2023-02-15T12:08:26;18.40;;;11.60;;
5539;SDS011;2792;52.452;9.752;2023-02-15T12:11:00;17.80;;;11.63;;
5539;SDS011;2792;52.452;9.752;2023-02-15T12:13:30;19.13;;;12.20;;
5539;SDS011;2792;52.452;9.752;2023-02-15T12:15:57;22.23;;;13.23;;
5539;SDS011;2792;52.452;9.752;2023-02-15T12:18:33;20.93;;;11.60;;
5539;SDS011;2792;52.452;9.752;2023-02-15T12:21:03;22.10;;;12.70;;
5539;SDS011;2792;52.452;9.752;2023-02-15T12:23:32;22.67;;;12.70;;
5539;SDS011;2792;52.452;9.752;2023-02-15T12:25:59;16.73;;;11.33;;
5539;SDS011;2792;52.452;9.752;2023-02-15T12:28:26;17.63;;;11.20;;
5539;SDS011;2792;52.452;9.752;2023-02-15T12:30:57;19.43;;;12.00;;
5539;SDS011;2792;52.452;9.752;2023-02-15T12:33:26;16.97;;;11.63;;
5539;SDS011;2792;52.452;9.752;2023-02-15T12:35:56;18.77;;;11.77;;
5539;SDS011;2792;52.452;9.752;2023-02-15T12:38:25;15.07;;;10.70;;
5539;SDS011;2792;52.452;9.752;2023-02-15T12:40:57;15.03;;;9.83;;
5539;SDS011;2792;52.452;9.752;2023-02-15T12:43:26;19.77;;;11.50;;
5539;SDS011;2792;52.452;9.752;2023-02-15T12:45:53;20.80;;;12.40;;
5539;SDS011;2792;52.452;9.752;2023-02-15T12:48:19;16.30;;;10.40;;
5539;SDS011;2792;52.452;9.752;2023-02-15T12:50:47;14.87;;;10.13;;
5539;SDS011;2792;52.452;9.752;2023-02-15T12:53:14;20.40;;;11.00;;
5539;SDS011;2792;52.452;9.752;2023-02-15T12:55:52;20.10;;;12.27;;
5539;SDS011;2792;52.452;9.752;2023-02-15T12:58:20;18.90;;;11.87;;
5539;SDS011;2792;52.452;9.752;2023-02-15T13:01:00;16.80;;;9.20;;
5539;SDS011;2792;52.452;9.752;2023-02-15T13:03:29;16.23;;;11.47;;
5539;SDS011;2792;52.452;9.752;2023-02-15T13:05:56;16.00;;;10.47;;
5539;SDS011;2792;52.452;9.752;2023-02-15T13:08:26;16.10;;;10.23;;
5539;SDS011;2792;52.452;9.752;2023-02-15T13:10:56;16.60;;;11.00;;
5539;SDS011;2792;52.452;9.752;2023-02-15T13:13:24;17.83;;;12.00;;
5539;SDS011;2792;52.452;9.752;2023-02-15T13:15:52;15.30;;;9.97;;
5539;SDS011;2792;52.452;9.752;2023-02-15T13:18:23;16.07;;;10.67;;
5539;SDS011;2792;52.452;9.752;2023-02-15T13:20:55;19.33;;;11.13;;
5539;SDS011;2792;52.452;9.752;2023-02-15T13:23:24;16.73;;;11.00;;
5539;SDS011;2792;52.452;9.752;2023-02-15T13:25:54;16.67;;;11.27;;
5539;SDS011;2792;52.452;9.752;2023-02-15T13:28:24;18.50;;;11.20;;
5539;SDS011;2792;52.452;9.752;2023-02-15T13:30:51;15.77;;;11.07;;
5539;SDS011;2792;52.452;9.752;2023-02-15T13:33:21;12.50;;;9.23;;
5539;SDS011;2792;52.452;9.752;2023-02-15T13:35:55;14.40;;;9.60;;
5539;SDS011;2792;52.452;9.752;2023-02-15T13:38:34;16.73;;;10.67;;
5539;SDS011;2792;52.452;9.752;2023-02-15T13:41:11;17.20;;;10.93;;
5539;SDS011;2792;52.452;9.752;2023-02-15T13:43:40;17.23;;;9.90;;
5539;SDS011;2792;52.452;9.752;2023-02-15T13:46:19;18.90;;;11.17;;
5539;SDS011;2792;52.452;9.752;2023-02-15T13:49:01;16.70;;;10.60;;
5539;SDS011;2792;52.452;9.752;2023-02-15T13:51:35;17.97;;;10.53;;
5539;SDS011;2792;52.452;9.752;2023-02-15T13:54:23;19.47;;;11.23;;
5539;SDS011;2792;52.452;9.752;2023-02-15T13:56:59;15.83;;;10.10;;
5539;SDS011;2792;52.452;9.752;2023-02-15T13:59:34;16.37;;;10.10;;
5539;SDS011;2792;52.452;9.752;2023-02-15T14:02:27;19.90;;;11.07;;
5539;SDS011;2792;52.452;9.752;2023-02-15T14:05:05;16.10;;;10.70;;
5539;SDS011;2792;52.452;9.752;2023-02-15T14:07:53;17.40;;;11.07;;
5539;SDS011;2792;52.452;9.752;2023-02-15T14:10:35;15.17;;;10.33;;
5539;SDS011;2792;52.452;9.752;2023-02-15T14:16:03;16.13;;;10.40;;
5539;SDS011;2792;52.452;9.752;2023-02-15T14:18:34;17.83;;;11.20;;
5539;SDS011;2792;52.452;9.752;2023-02-15T14:21:04;15.30;;;10.23;;
5539;SDS011;2792;52.452;9.752;2023-02-15T14:23:36;16.83;;;10.93;;
5539;SDS011;2792;52.452;9.752;2023-02-15T14:26:10;16.23;;;10.80;;
5539;SDS011;2792;52.452;9.752;2023-02-15T14:28:45;16.50;;;11.87;;
5539;SDS011;2792;52.452;9.752;2023-02-15T14:31:15;15.17;;;11.53;;
5539;SDS011;2792;52.452;9.752;2023-02-15T14:33:43;16.27;;;10.63;;
5539;SDS011;2792;52.452;9.752;2023-02-15T14:36:14;16.40;;;10.50;;
5539;SDS011;2792;52.452;9.752;2023-02-15T14:38:47;18.10;;;10.63;;
5539;SDS011;2792;52.452;9.752;2023-02-15T14:41:18;17.27;;;11.10;;
5539;SDS011;2792;52.452;9.752;2023-02-15T14:43:49;16.83;;;11.87;;
5539;SDS011;2792;52.452;9.752;2023-02-15T14:46:21;19.47;;;11.60;;
5539;SDS011;2792;52.452;9.752;2023-02-15T14:48:52;17.10;;;11.17;;
5539;SDS011;2792;52.452;9.752;2023-02-15T14:57:21;15.00;;;9.60;;
5539;SDS011;2792;52.452;9.752;2023-02-15T14:59:54;14.37;;;9.60;;
5539;SDS011;2792;52.452;9.752;2023-02-15T15:02:24;15.37;;;10.90;;
5539;SDS011;2792;52.452;9.752;2023-02-15T15:04:55;14.70;;;10.00;;
5539;SDS011;2792;52.452;9.752;2023-02-15T15:07:25;15.60;;;10.83;;
5539;SDS011;2792;52.452;9.752;2023-02-15T15:09:59;18.07;;;10.20;;
5539;SDS011;2792;52.452;9.752;2023-02-15T15:12:37;15.80;;;10.40;;
5539;SDS011;2792;52.452;9.752;2023-02-15T15:15:09;15.13;;;10.60;;
5539;SDS011;2792;52.452;9.752;2023-02-15T15:20:45;17.03;;;10.87;;
5539;SDS011;2792;52.452;9.752;2023-02-15T15:26:29;14.87;;;10.23;;
5539;SDS011;2792;52.452;9.752;2023-02-15T15:29:01;16.30;;;10.80;;
5539;SDS011;2792;52.452;9.752;2023-02-15T15:31:37;20.80;;;11.40;;
5539;SDS011;2792;52.452;9.752;2023-02-15T15:34:15;18.40;;;11.47;;